sensor_id;sensor_type;location;lat;lon;timestamp;pressure;altitude;pressure_sealevel;temperature;humidity
51249;BME280;39642;47.556;18.728;2023-07-22T00:01:02;99223.72;;;26.05;50.00
51249;BME280;39642;47.556;18.728;2023-07-22T00:03:31;99216.59;;;26.05;50.02
51249;BME280;39642;47.556;18.728;2023-07-22T00:08:32;99204.09;;;26.06;50.20
51249;BME280;39642;47.556;18.728;2023-07-22T00:10:59;99209.53;;;26.04;50.07
51249;BME280;39642;47.556;18.728;2023-07-22T00:13:25;99220.22;;;26.04;50.07
51249;BME280;39642;47.556;18.728;2023-07-22T00:15:56;99215.00;;;26.03;49.85
51249;BME280;39642;47.556;18.728;2023-07-22T00:18:22;99204.34;;;26.03;49.95
51249;BME280;39642;47.556;18.728;2023-07-22T00:20:49;99194.53;;;26.03;49.94
51249;BME280;39642;47.556;18.728;2023-07-22T00:23:16;99200.72;;;26.04;49.89
51249;BME280;39642;47.556;18.728;2023-07-22T00:25:42;99199.88;;;26.03;49.88
51249;BME280;39642;47.556;18.728;2023-07-22T00:28:08;99197.22;;;26.03;49.90
51249;BME280;39642;47.556;18.728;2023-07-22T00:30:34;99199.88;;;26.03;49.86
51249;BME280;39642;47.556;18.728;2023-07-22T00:33:08;99196.34;;;26.03;49.80
51249;BME280;39642;47.556;18.728;2023-07-22T00:35:35;99187.50;;;26.02;49.67
51249;BME280;39642;47.556;18.728;2023-07-22T00:38:01;99184.84;;;26.02;49.68
51249;BME280;39642;47.556;18.728;2023-07-22T00:40:27;99192.84;;;26.02;49.84
51249;BME280;39642;47.556;18.728;2023-07-22T00:42:56;99190.16;;;26.02;50.01
51249;BME280;39642;47.556;18.728;2023-07-22T00:45:24;99194.66;;;26.02;50.09
51249;BME280;39642;47.556;18.728;2023-07-22T00:47:50;99201.84;;;26.01;50.11
51249;BME280;39642;47.556;18.728;2023-07-22T00:50:16;99199.28;;;26.00;49.98
51249;BME280;39642;47.556;18.728;2023-07-22T00:52:42;99204.62;;;26.00;49.96
51249;BME280;39642;47.556;18.728;2023-07-22T00:55:09;99205.47;;;26.00;49.91
51249;BME280;39642;47.556;18.728;2023-07-22T00:57:36;99223.19;;;26.01;49.99
51249;BME280;39642;47.556;18.728;2023-07-22T01:00:02;99226.81;;;26.00;49.92
51249;BME280;39642;47.556;18.728;2023-07-22T01:02:28;99226.81;;;26.00;49.92
51249;BME280;39642;47.556;18.728;2023-07-22T01:04:54;99227.66;;;26.01;49.90
51249;BME280;39642;47.556;18.728;2023-07-22T01:07:20;99235.81;;;25.99;49.77
51249;BME280;39642;47.556;18.728;2023-07-22T01:09:46;99241.84;;;26.01;49.61
51249;BME280;39642;47.556;18.728;2023-07-22T01:12:12;99244.53;;;26.01;49.55
51249;BME280;39642;47.556;18.728;2023-07-22T01:14:41;99240.03;;;26.02;49.60
51249;BME280;39642;47.556;18.728;2023-07-22T01:17:08;99240.03;;;26.02;49.50
51249;BME280;39642;47.556;18.728;2023-07-22T01:19:36;99252.38;;;26.03;49.42
51249;BME280;39642;47.556;18.728;2023-07-22T01:22:06;99245.22;;;26.03;49.55
51249;BME280;39642;47.556;18.728;2023-07-22T01:24:39;99247.03;;;26.03;49.40
51249;BME280;39642;47.556;18.728;2023-07-22T01:27:08;99245.22;;;26.03;49.72
51249;BME280;39642;47.556;18.728;2023-07-22T01:29:36;99255.03;;;26.03;49.73
51249;BME280;39642;47.556;18.728;2023-07-22T01:32:02;99256.03;;;26.02;49.66
51249;BME280;39642;47.556;18.728;2023-07-22T01:34:28;99260.53;;;26.01;49.63
51249;BME280;39642;47.556;18.728;2023-07-22T01:36:55;99258.81;;;26.00;49.41
51249;BME280;39642;47.556;18.728;2023-07-22T01:39:21;99262.31;;;26.01;49.41
51249;BME280;39642;47.556;18.728;2023-07-22T01:41:47;99263.19;;;26.01;49.29
51249;BME280;39642;47.556;18.728;2023-07-22T01:44:14;99264.88;;;26.02;49.35
51249;BME280;39642;47.556;18.728;2023-07-22T01:46:41;99274.69;;;26.02;49.22
51249;BME280;39642;47.556;18.728;2023-07-22T01:49:10;99280.88;;;26.02;49.20
51249;BME280;39642;47.556;18.728;2023-07-22T01:51:38;99289.72;;;26.03;49.25
51249;BME280;39642;47.556;18.728;2023-07-22T01:54:07;99298.72;;;26.02;49.18
51249;BME280;39642;47.556;18.728;2023-07-22T01:56:35;99297.00;;;26.01;49.26
51249;BME280;39642;47.556;18.728;2023-07-22T01:59:01;99304.06;;;26.02;49.03
51249;BME280;39642;47.556;18.728;2023-07-22T02:01:27;99304.88;;;26.02;48.98
51249;BME280;39642;47.556;18.728;2023-07-22T02:03:54;99304.88;;;26.02;49.03
51249;BME280;39642;47.556;18.728;2023-07-22T02:06:21;99300.53;;;26.01;49.07
51249;BME280;39642;47.556;18.728;2023-07-22T02:08:47;99293.38;;;26.02;48.99
51249;BME280;39642;47.556;18.728;2023-07-22T02:11:13;99301.38;;;26.02;49.08
51249;BME280;39642;47.556;18.728;2023-07-22T02:13:39;99306.84;;;26.00;49.01
51249;BME280;39642;47.556;18.728;2023-07-22T02:16:05;99309.50;;;26.00;49.11
51249;BME280;39642;47.556;18.728;2023-07-22T02:18:31;99312.19;;;26.00;48.91
51249;BME280;39642;47.556;18.728;2023-07-22T02:20:57;99310.50;;;25.99;48.94
51249;BME280;39642;47.556;18.728;2023-07-22T02:23:24;99318.50;;;25.99;48.92
51249;BME280;39642;47.556;18.728;2023-07-22T02:25:52;99322.00;;;26.00;48.71
51249;BME280;39642;47.556;18.728;2023-07-22T02:28:19;99320.19;;;26.00;48.69
51249;BME280;39642;47.556;18.728;2023-07-22T02:30:50;99320.19;;;26.00;48.66
51249;BME280;39642;47.556;18.728;2023-07-22T02:33:19;99313.00;;;26.01;49.02
51249;BME280;39642;47.556;18.728;2023-07-22T02:35:46;99319.34;;;26.00;49.20
51249;BME280;39642;47.556;18.728;2023-07-22T02:38:13;99324.81;;;25.98;49.05
51249;BME280;39642;47.556;18.728;2023-07-22T02:40:40;99336.47;;;25.97;49.28
51249;BME280;39642;47.556;18.728;2023-07-22T02:43:06;99331.13;;;25.97;49.42
51249;BME280;39642;47.556;18.728;2023-07-22T02:45:36;99336.59;;;25.95;49.15
51249;BME280;39642;47.556;18.728;2023-07-22T02:48:02;99338.44;;;25.95;49.43
51249;BME280;39642;47.556;18.728;2023-07-22T02:50:30;99341.09;;;25.95;49.51
51249;BME280;39642;47.556;18.728;2023-07-22T02:52:56;99340.25;;;25.94;49.52
51249;BME280;39642;47.556;18.728;2023-07-22T02:55:22;99324.38;;;25.93;49.68
51249;BME280;39642;47.556;18.728;2023-07-22T02:57:49;99316.38;;;25.93;49.69
51249;BME280;39642;47.556;18.728;2023-07-22T03:00:16;99320.03;;;25.92;49.70
51249;BME280;39642;47.556;18.728;2023-07-22T03:02:56;99327.34;;;25.90;49.76
51249;BME280;39642;47.556;18.728;2023-07-22T03:05:30;99324.78;;;25.88;49.57
51249;BME280;39642;47.556;18.728;2023-07-22T03:07:57;99330.13;;;25.88;49.46
51249;BME280;39642;47.556;18.728;2023-07-22T03:10:24;99335.47;;;25.88;49.36
51249;BME280;39642;47.556;18.728;2023-07-22T03:12:55;99340.66;;;25.90;48.90
51249;BME280;39642;47.556;18.728;2023-07-22T03:15:22;99350.22;;;25.92;48.71
51249;BME280;39642;47.556;18.728;2023-07-22T03:17:48;99350.94;;;25.94;48.53
51249;BME280;39642;47.556;18.728;2023-07-22T03:20:15;99348.25;;;25.94;48.52
51249;BME280;39642;47.556;18.728;2023-07-22T03:22:45;99341.09;;;25.95;48.87
51249;BME280;39642;47.556;18.728;2023-07-22T03:25:13;99348.25;;;25.94;48.76
51249;BME280;39642;47.556;18.728;2023-07-22T03:27:40;99350.94;;;25.94;48.98
51249;BME280;39642;47.556;18.728;2023-07-22T03:30:07;99342.22;;;25.92;48.92
51249;BME280;39642;47.556;18.728;2023-07-22T03:32:34;99350.22;;;25.92;49.41
51249;BME280;39642;47.556;18.728;2023-07-22T03:35:00;99345.00;;;25.91;49.25
51249;BME280;39642;47.556;18.728;2023-07-22T03:37:27;99338.84;;;25.90;49.24
51249;BME280;39642;47.556;18.728;2023-07-22T03:39:53;99349.50;;;25.90;48.98
51249;BME280;39642;47.556;18.728;2023-07-22T03:42:19;99348.66;;;25.90;49.12
51249;BME280;39642;47.556;18.728;2023-07-22T03:44:45;99349.50;;;25.90;49.28
51249;BME280;39642;47.556;18.728;2023-07-22T03:47:11;99354.97;;;25.89;49.29
51249;BME280;39642;47.556;18.728;2023-07-22T03:49:37;99361.31;;;25.88;49.24
51249;BME280;39642;47.556;18.728;2023-07-22T03:52:03;99366.63;;;25.88;49.09
51249;BME280;39642;47.556;18.728;2023-07-22T03:54:29;99363.97;;;25.88;48.87
51249;BME280;39642;47.556;18.728;2023-07-22T03:56:55;99362.13;;;25.88;48.67
51249;BME280;39642;47.556;18.728;2023-07-22T03:59:21;99362.00;;;25.90;48.54
51249;BME280;39642;47.556;18.728;2023-07-22T04:01:50;99361.00;;;25.91;48.65
51249;BME280;39642;47.556;18.728;2023-07-22T04:04:16;99360.19;;;25.90;48.82
51249;BME280;39642;47.556;18.728;2023-07-22T04:06:42;99366.34;;;25.91;49.12
51249;BME280;39642;47.556;18.728;2023-07-22T04:09:08;99367.34;;;25.90;49.05
51249;BME280;39642;47.556;18.728;2023-07-22T04:11:34;99372.69;;;25.90;49.35
51249;BME280;39642;47.556;18.728;2023-07-22T04:14:00;99361.31;;;25.88;49.45
51249;BME280;39642;47.556;18.728;2023-07-22T04:16:26;99359.56;;;25.87;49.44
51249;BME280;39642;47.556;18.728;2023-07-22T04:18:52;99364.91;;;25.87;49.49
51249;BME280;39642;47.556;18.728;2023-07-22T04:21:17;99369.50;;;25.85;49.54
51249;BME280;39642;47.556;18.728;2023-07-22T04:23:51;99368.69;;;25.84;49.60
51249;BME280;39642;47.556;18.728;2023-07-22T04:26:17;99367.97;;;25.82;49.65
51249;BME280;39642;47.556;18.728;2023-07-22T04:28:43;99368.97;;;25.81;49.66
51249;BME280;39642;47.556;18.728;2023-07-22T04:31:09;99369.91;;;25.80;49.68
51249;BME280;39642;47.556;18.728;2023-07-22T04:33:35;99371.75;;;25.80;49.72
51249;BME280;39642;47.556;18.728;2023-07-22T04:36:01;99373.59;;;25.79;49.74
51249;BME280;39642;47.556;18.728;2023-07-22T04:38:27;99372.75;;;25.79;49.76
51249;BME280;39642;47.556;18.728;2023-07-22T04:40:53;99373.69;;;25.77;49.79
51249;BME280;39642;47.556;18.728;2023-07-22T04:43:22;99374.69;;;25.76;49.83
51249;BME280;39642;47.556;18.728;2023-07-22T04:45:50;99371.19;;;25.76;49.85
51249;BME280;39642;47.556;18.728;2023-07-22T04:48:20;99365.00;;;25.75;49.91
51249;BME280;39642;47.556;18.728;2023-07-22T04:50:48;99371.31;;;25.74;49.94
51249;BME280;39642;47.556;18.728;2023-07-22T04:53:17;99370.59;;;25.72;49.97
51249;BME280;39642;47.556;18.728;2023-07-22T04:55:43;99370.59;;;25.72;50.00
51249;BME280;39642;47.556;18.728;2023-07-22T04:58:09;99375.09;;;25.72;50.03
51249;BME280;39642;47.556;18.728;2023-07-22T05:00:37;99382.25;;;25.71;50.05
51249;BME280;39642;47.556;18.728;2023-07-22T05:03:03;99389.28;;;25.72;50.07
51249;BME280;39642;47.556;18.728;2023-07-22T05:05:33;99389.28;;;25.72;50.07
51249;BME280;39642;47.556;18.728;2023-07-22T05:07:59;99386.59;;;25.72;50.07
51249;BME280;39642;47.556;18.728;2023-07-22T05:10:28;99392.78;;;25.73;50.08
51249;BME280;39642;47.556;18.728;2023-07-22T05:12:54;99391.94;;;25.72;50.10
51249;BME280;39642;47.556;18.728;2023-07-22T05:15:25;99400.78;;;25.73;50.07
51249;BME280;39642;47.556;18.728;2023-07-22T05:17:51;99398.94;;;25.73;50.13
51249;BME280;39642;47.556;18.728;2023-07-22T05:20:17;99400.66;;;25.74;50.09
51249;BME280;39642;47.556;18.728;2023-07-22T05:22:43;99399.81;;;25.74;50.10
51249;BME280;39642;47.556;18.728;2023-07-22T05:25:09;99405.97;;;25.74;50.07
51249;BME280;39642;47.556;18.728;2023-07-22T05:27:35;99400.66;;;25.74;50.13
51249;BME280;39642;47.556;18.728;2023-07-22T05:30:02;99404.16;;;25.75;50.07
51249;BME280;39642;47.556;18.728;2023-07-22T05:32:29;99408.66;;;25.74;50.01
51249;BME280;39642;47.556;18.728;2023-07-22T05:34:58;99414.00;;;25.74;50.01
51249;BME280;39642;47.556;18.728;2023-07-22T05:37:24;99417.38;;;25.76;50.05
51249;BME280;39642;47.556;18.728;2023-07-22T05:39:51;99412.88;;;25.77;50.08
51249;BME280;39642;47.556;18.728;2023-07-22T05:42:17;99405.72;;;25.77;50.06
51249;BME280;39642;47.556;18.728;2023-07-22T05:44:43;99412.59;;;25.80;50.16
51249;BME280;39642;47.556;18.728;2023-07-22T05:47:09;99414.31;;;25.81;50.09
51249;BME280;39642;47.556;18.728;2023-07-22T05:49:35;99414.31;;;25.81;50.04
51249;BME280;39642;47.556;18.728;2023-07-22T05:52:01;99411.75;;;25.80;50.07
51249;BME280;39642;47.556;18.728;2023-07-22T05:54:27;99414.41;;;25.80;50.14
51249;BME280;39642;47.556;18.728;2023-07-22T05:56:59;99414.53;;;25.78;50.14
51249;BME280;39642;47.556;18.728;2023-07-22T05:59:25;99419.03;;;25.77;50.18
51249;BME280;39642;47.556;18.728;2023-07-22T06:01:51;99411.88;;;25.78;50.15
51249;BME280;39642;47.556;18.728;2023-07-22T06:04:17;99411.75;;;25.80;50.16
51249;BME280;39642;47.556;18.728;2023-07-22T06:06:42;99409.94;;;25.80;50.14
51249;BME280;39642;47.556;18.728;2023-07-22T06:09:08;99419.63;;;25.81;50.16
51249;BME280;39642;47.556;18.728;2023-07-22T06:11:35;99425.94;;;25.80;50.17
51249;BME280;39642;47.556;18.728;2023-07-22T06:14:00;99416.13;;;25.81;50.17
51249;BME280;39642;47.556;18.728;2023-07-22T06:16:26;99425.81;;;25.82;50.16
51249;BME280;39642;47.556;18.728;2023-07-22T06:18:52;99429.31;;;25.82;50.12
51249;BME280;39642;47.556;18.728;2023-07-22T06:21:18;99437.31;;;25.82;50.12
51249;BME280;39642;47.556;18.728;2023-07-22T06:23:45;99424.84;;;25.83;50.13
51249;BME280;39642;47.556;18.728;2023-07-22T06:26:11;99429.19;;;25.84;50.11
51249;BME280;39642;47.556;18.728;2023-07-22T06:28:37;99435.34;;;25.84;50.11
51249;BME280;39642;47.556;18.728;2023-07-22T06:31:03;99429.91;;;25.86;50.09
51249;BME280;39642;47.556;18.728;2023-07-22T06:33:29;99430.66;;;25.88;50.07
51249;BME280;39642;47.556;18.728;2023-07-22T06:35:55;99426.16;;;25.88;50.05
51249;BME280;39642;47.556;18.728;2023-07-22T06:38:21;99429.81;;;25.87;50.06
51249;BME280;39642;47.556;18.728;2023-07-22T06:40:47;99433.16;;;25.89;50.01
51249;BME280;39642;47.556;18.728;2023-07-22T06:43:13;99437.53;;;25.90;50.00
51249;BME280;39642;47.556;18.728;2023-07-22T06:45:39;99433.88;;;25.91;49.98
51249;BME280;39642;47.556;18.728;2023-07-22T06:48:05;99437.41;;;25.92;49.98
51249;BME280;39642;47.556;18.728;2023-07-22T06:50:31;99437.25;;;25.93;49.94
51249;BME280;39642;47.556;18.728;2023-07-22T06:52:57;99431.94;;;25.93;49.93
51249;BME280;39642;47.556;18.728;2023-07-22T06:55:23;99432.78;;;25.94;49.92
51249;BME280;39642;47.556;18.728;2023-07-22T06:57:49;99433.62;;;25.94;49.90
51249;BME280;39642;47.556;18.728;2023-07-22T07:00:16;99432.62;;;25.95;49.88
51249;BME280;39642;47.556;18.728;2023-07-22T07:02:42;99434.34;;;25.96;49.85
51249;BME280;39642;47.556;18.728;2023-07-22T07:05:08;99429.84;;;25.97;49.87
51249;BME280;39642;47.556;18.728;2023-07-22T07:07:33;99435.19;;;25.97;49.86
51249;BME280;39642;47.556;18.728;2023-07-22T07:09:59;99437.84;;;25.97;49.89
51249;BME280;39642;47.556;18.728;2023-07-22T07:12:25;99436.84;;;25.98;49.86
51249;BME280;39642;47.556;18.728;2023-07-22T07:14:54;99440.41;;;25.99;49.87
51249;BME280;39642;47.556;18.728;2023-07-22T07:17:20;99438.56;;;25.99;49.83
51249;BME280;39642;47.556;18.728;2023-07-22T07:19:46;99443.75;;;26.01;49.83
51249;BME280;39642;47.556;18.728;2023-07-22T07:22:12;99449.94;;;26.01;49.78
51249;BME280;39642;47.556;18.728;2023-07-22T07:24:38;99446.28;;;26.02;49.77
51249;BME280;39642;47.556;18.728;2023-07-22T07:27:04;99455.13;;;26.03;49.75
51249;BME280;39642;47.556;18.728;2023-07-22T07:29:30;99448.00;;;26.03;49.73
51249;BME280;39642;47.556;18.728;2023-07-22T07:31:56;99457.66;;;26.04;49.74
51249;BME280;39642;47.556;18.728;2023-07-22T07:34:22;99452.34;;;26.04;49.73
51249;BME280;39642;47.556;18.728;2023-07-22T07:36:48;99458.50;;;26.05;49.72
51249;BME280;39642;47.556;18.728;2023-07-22T07:39:15;99459.50;;;26.04;49.73
51249;BME280;39642;47.556;18.728;2023-07-22T07:41:41;99462.03;;;26.05;49.73
51249;BME280;39642;47.556;18.728;2023-07-22T07:44:07;99465.69;;;26.04;49.74
51249;BME280;39642;47.556;18.728;2023-07-22T07:46:33;99462.03;;;26.05;49.69
51249;BME280;39642;47.556;18.728;2023-07-22T07:49:00;99465.56;;;26.06;49.67
51249;BME280;39642;47.556;18.728;2023-07-22T07:51:27;99471.72;;;26.06;49.68
51249;BME280;39642;47.556;18.728;2023-07-22T07:53:54;99468.06;;;26.07;49.65
51249;BME280;39642;47.556;18.728;2023-07-22T07:56:20;99471.72;;;26.06;49.63
51249;BME280;39642;47.556;18.728;2023-07-22T07:58:48;99473.28;;;26.09;49.58
51249;BME280;39642;47.556;18.728;2023-07-22T08:01:14;99473.16;;;26.10;49.57
51249;BME280;39642;47.556;18.728;2023-07-22T08:03:42;99472.31;;;26.10;49.51
51249;BME280;39642;47.556;18.728;2023-07-22T08:06:09;99481.16;;;26.10;49.55
51249;BME280;39642;47.556;18.728;2023-07-22T08:08:35;99485.50;;;26.11;49.48
51249;BME280;39642;47.556;18.728;2023-07-22T08:11:10;99481.00;;;26.12;49.55
51249;BME280;39642;47.556;18.728;2023-07-22T08:13:37;99499.56;;;26.13;49.51
51249;BME280;39642;47.556;18.728;2023-07-22T08:16:04;99502.22;;;26.13;49.47
51249;BME280;39642;47.556;18.728;2023-07-22T08:18:31;99510.25;;;26.13;49.40
51249;BME280;39642;47.556;18.728;2023-07-22T08:20:59;99521.75;;;26.14;49.40
51249;BME280;39642;47.556;18.728;2023-07-22T08:23:25;99520.78;;;26.15;49.45
51249;BME280;39642;47.556;18.728;2023-07-22T08:25:51;99534.97;;;26.15;49.47
51249;BME280;39642;47.556;18.728;2023-07-22T08:28:17;99531.34;;;26.16;49.42
51249;BME280;39642;47.556;18.728;2023-07-22T08:30:43;99542.97;;;26.15;49.37
51249;BME280;39642;47.556;18.728;2023-07-22T08:33:10;99542.00;;;26.16;49.43
51249;BME280;39642;47.556;18.728;2023-07-22T08:35:40;99548.19;;;26.17;49.31
51249;BME280;39642;47.556;18.728;2023-07-22T08:38:07;99555.19;;;26.18;49.33
51249;BME280;39642;47.556;18.728;2023-07-22T08:40:39;99558.72;;;26.18;49.31
51249;BME280;39642;47.556;18.728;2023-07-22T08:43:08;99561.38;;;26.18;49.28
51249;BME280;39642;47.556;18.728;2023-07-22T08:45:35;99569.38;;;26.18;49.35
51249;BME280;39642;47.556;18.728;2023-07-22T08:48:07;99567.72;;;26.17;49.29
51249;BME280;39642;47.556;18.728;2023-07-22T08:50:49;99572.06;;;26.18;49.29
51249;BME280;39642;47.556;18.728;2023-07-22T08:53:16;99574.47;;;26.22;49.28
51249;BME280;39642;47.556;18.728;2023-07-22T08:55:45;99578.09;;;26.21;49.24
51249;BME280;39642;47.556;18.728;2023-07-22T08:58:12;99579.94;;;26.20;49.21
51249;BME280;39642;47.556;18.728;2023-07-22T09:00:39;99580.78;;;26.21;49.16
51249;BME280;39642;47.556;18.728;2023-07-22T09:03:05;99581.50;;;26.23;49.08
51249;BME280;39642;47.556;18.728;2023-07-22T09:05:35;99578.00;;;26.22;49.06
51249;BME280;39642;47.556;18.728;2023-07-22T09:08:02;99577.03;;;26.23;49.10
51249;BME280;39642;47.556;18.728;2023-07-22T09:10:30;99589.37;;;26.24;49.07
51249;BME280;39642;47.556;18.728;2023-07-22T09:12:56;99585.88;;;26.24;49.05
51249;BME280;39642;47.556;18.728;2023-07-22T09:15:22;99585.03;;;26.23;49.05
51249;BME280;39642;47.556;18.728;2023-07-22T09:17:49;99594.72;;;26.24;49.05
51249;BME280;39642;47.556;18.728;2023-07-22T09:20:16;99592.88;;;26.25;49.03
51249;BME280;39642;47.556;18.728;2023-07-22T09:22:46;99601.72;;;26.25;48.89
51249;BME280;39642;47.556;18.728;2023-07-22T09:25:24;99603.56;;;26.25;48.91
51249;BME280;39642;47.556;18.728;2023-07-22T09:27:52;99600.78;;;26.26;48.85
51249;BME280;39642;47.556;18.728;2023-07-22T09:31:01;99600.06;;;26.24;48.82
51249;BME280;39642;47.556;18.728;2023-07-22T09:33:21;99590.22;;;26.25;48.79
51249;BME280;39642;47.556;18.728;2023-07-22T09:35:48;99591.94;;;26.26;48.75
51249;BME280;39642;47.556;18.728;2023-07-22T09:38:22;99588.38;;;26.25;48.83
51249;BME280;39642;47.556;18.728;2023-07-22T09:40:48;99590.22;;;26.25;48.81
51249;BME280;39642;47.556;18.728;2023-07-22T09:43:14;99580.53;;;26.24;48.65
51249;BME280;39642;47.556;18.728;2023-07-22T09:45:40;99585.72;;;26.25;48.69
51249;BME280;39642;47.556;18.728;2023-07-22T09:48:08;99582.37;;;26.23;48.70
51249;BME280;39642;47.556;18.728;2023-07-22T09:50:39;99582.37;;;26.23;48.62
51249;BME280;39642;47.556;18.728;2023-07-22T09:53:04;99583.19;;;26.24;48.63
51249;BME280;39642;47.556;18.728;2023-07-22T09:55:32;99583.19;;;26.24;48.62
51249;BME280;39642;47.556;18.728;2023-07-22T09:58:02;99587.69;;;26.23;48.59
51249;BME280;39642;47.556;18.728;2023-07-22T10:00:31;99592.16;;;26.23;48.58
51249;BME280;39642;47.556;18.728;2023-07-22T10:02:58;99593.16;;;26.22;48.50
51249;BME280;39642;47.556;18.728;2023-07-22T10:05:26;99597.66;;;26.21;48.55
51249;BME280;39642;47.556;18.728;2023-07-22T10:07:56;99595.84;;;26.22;48.42
51249;BME280;39642;47.556;18.728;2023-07-22T10:10:26;99599.34;;;26.22;48.38
51249;BME280;39642;47.556;18.728;2023-07-22T10:12:53;99602.84;;;26.23;48.36
51249;BME280;39642;47.556;18.728;2023-07-22T10:15:19;99599.34;;;26.22;48.42
51249;BME280;39642;47.556;18.728;2023-07-22T10:17:46;99595.00;;;26.21;48.36
51249;BME280;39642;47.556;18.728;2023-07-22T10:20:13;99608.34;;;26.21;48.31
51249;BME280;39642;47.556;18.728;2023-07-22T10:22:43;99607.47;;;26.21;48.15
51249;BME280;39642;47.556;18.728;2023-07-22T10:25:12;99605.66;;;26.21;48.20
51249;BME280;39642;47.556;18.728;2023-07-22T10:27:39;99605.66;;;26.21;48.08
51249;BME280;39642;47.556;18.728;2023-07-22T10:30:11;99608.34;;;26.21;48.15
51249;BME280;39642;47.556;18.728;2023-07-22T10:32:42;99609.19;;;26.22;48.15
51249;BME280;39642;47.556;18.728;2023-07-22T10:35:21;99595.00;;;26.21;48.06
51249;BME280;39642;47.556;18.728;2023-07-22T10:37:47;99611.84;;;26.22;48.04
51249;BME280;39642;47.556;18.728;2023-07-22T10:40:26;99604.69;;;26.22;48.01
51249;BME280;39642;47.556;18.728;2023-07-22T10:42:57;99607.34;;;26.22;48.03
51249;BME280;39642;47.556;18.728;2023-07-22T10:45:28;99608.19;;;26.23;48.03
51249;BME280;39642;47.556;18.728;2023-07-22T10:48:22;99603.13;;;26.20;48.07
51249;BME280;39642;47.556;18.728;2023-07-22T10:50:53;99608.47;;;26.20;48.07
51249;BME280;39642;47.556;18.728;2023-07-22T11:01:25;99595.22;;;26.18;48.10
51249;BME280;39642;47.556;18.728;2023-07-22T11:04:04;99595.38;;;26.16;48.02
51249;BME280;39642;47.556;18.728;2023-07-22T11:06:31;99589.19;;;26.16;48.00
51249;BME280;39642;47.556;18.728;2023-07-22T11:08:56;99585.66;;;26.15;47.89
51249;BME280;39642;47.556;18.728;2023-07-22T11:11:35;99583.00;;;26.15;47.82
51249;BME280;39642;47.556;18.728;2023-07-22T11:14:20;99573.16;;;26.16;47.78
51249;BME280;39642;47.556;18.728;2023-07-22T11:16:47;99572.34;;;26.15;47.67
51249;BME280;39642;47.556;18.728;2023-07-22T11:19:18;99578.50;;;26.16;47.64
51249;BME280;39642;47.556;18.728;2023-07-22T11:21:46;99575.00;;;26.15;47.55
51249;BME280;39642;47.556;18.728;2023-07-22T11:24:12;99582.03;;;26.16;47.75
51249;BME280;39642;47.556;18.728;2023-07-22T11:26:39;99575.84;;;26.16;47.77
51249;BME280;39642;47.556;18.728;2023-07-22T11:29:07;99574.28;;;26.13;47.73
51249;BME280;39642;47.556;18.728;2023-07-22T11:31:41;99579.63;;;26.13;47.77
51249;BME280;39642;47.556;18.728;2023-07-22T11:34:17;99565.44;;;26.13;47.56
51249;BME280;39642;47.556;18.728;2023-07-22T11:36:44;99558.28;;;26.13;47.69
51249;BME280;39642;47.556;18.728;2023-07-22T11:39:17;99555.72;;;26.12;47.60
51249;BME280;39642;47.556;18.728;2023-07-22T11:41:44;99558.37;;;26.12;47.47
51249;BME280;39642;47.556;18.728;2023-07-22T11:44:12;99558.37;;;26.12;47.63
51249;BME280;39642;47.556;18.728;2023-07-22T11:46:59;99554.88;;;26.11;47.60
51249;BME280;39642;47.556;18.728;2023-07-22T11:52:09;99556.84;;;26.09;47.47
51249;BME280;39642;47.556;18.728;2023-07-22T11:54:39;99555.88;;;26.10;47.38
51249;BME280;39642;47.556;18.728;2023-07-22T11:59:45;99556.84;;;26.09;47.52
51249;BME280;39642;47.556;18.728;2023-07-22T12:02:25;99548.00;;;26.09;47.42
51249;BME280;39642;47.556;18.728;2023-07-22T12:05:02;99560.50;;;26.08;47.34
51249;BME280;39642;47.556;18.728;2023-07-22T12:07:39;99556.84;;;26.09;47.27
51249;BME280;39642;47.556;18.728;2023-07-22T12:10:09;99557.81;;;26.08;47.19
51249;BME280;39642;47.556;18.728;2023-07-22T12:12:37;99563.16;;;26.08;47.40
51249;BME280;39642;47.556;18.728;2023-07-22T12:15:15;99554.31;;;26.08;47.42
51249;BME280;39642;47.556;18.728;2023-07-22T12:17:48;99545.44;;;26.07;47.34
51249;BME280;39642;47.556;18.728;2023-07-22T12:20:16;99548.12;;;26.07;47.20
51249;BME280;39642;47.556;18.728;2023-07-22T12:22:42;99553.44;;;26.07;47.34
51249;BME280;39642;47.556;18.728;2023-07-22T12:25:11;99551.78;;;26.06;47.19
51249;BME280;39642;47.556;18.728;2023-07-22T12:27:37;99548.25;;;26.06;47.05
51249;BME280;39642;47.556;18.728;2023-07-22T12:30:05;99551.78;;;26.06;47.17
51249;BME280;39642;47.556;18.728;2023-07-22T12:32:31;99542.94;;;26.06;47.15
51249;BME280;39642;47.556;18.728;2023-07-22T12:34:57;99546.56;;;26.05;47.13
51249;BME280;39642;47.556;18.728;2023-07-22T12:37:23;99538.56;;;26.05;46.96
51249;BME280;39642;47.556;18.728;2023-07-22T12:39:48;99533.22;;;26.05;47.14
51249;BME280;39642;47.556;18.728;2023-07-22T12:42:14;99541.09;;;26.06;47.09
51249;BME280;39642;47.556;18.728;2023-07-22T12:44:40;99542.09;;;26.05;47.06
51249;BME280;39642;47.556;18.728;2023-07-22T12:47:06;99540.38;;;26.04;47.06
51249;BME280;39642;47.556;18.728;2023-07-22T12:49:33;99546.56;;;26.05;47.05
51249;BME280;39642;47.556;18.728;2023-07-22T12:51:59;99536.87;;;26.04;46.88
51249;BME280;39642;47.556;18.728;2023-07-22T12:54:30;99539.53;;;26.04;46.77
51249;BME280;39642;47.556;18.728;2023-07-22T12:56:56;99544.75;;;26.05;46.95
51249;BME280;39642;47.556;18.728;2023-07-22T12:59:22;99539.44;;;26.05;46.88
51249;BME280;39642;47.556;18.728;2023-07-22T13:01:48;99543.78;;;26.06;46.85
51249;BME280;39642;47.556;18.728;2023-07-22T13:04:14;99538.44;;;26.06;46.85
51249;BME280;39642;47.556;18.728;2023-07-22T13:06:40;99541.09;;;26.06;46.76
51249;BME280;39642;47.556;18.728;2023-07-22T13:09:06;99534.78;;;26.07;46.64